Airfield :
LOGIN :

Register | Disclaimer

   EN    FR    IT 

 










Legend :    VFR   Marginal VFR   IFR   Intensive IFR   Very Intensive IFR
Visi :
Ceiling :
>= 8 km
>= 3000ft
5 to 8 km
1000 to 3000 ft
1500m to 5 km
500 to 1000 ft
800 to 1500m
200 to 500 ft
< 800m
< 200 ft
Symbols :   Thunderstorms  Fog  Heavy snow  Heavy precipitations  Wind > 20 kt
SIGMETs :     Misc.  Thunderstorms  Icing  Turbulence  Mountain Waves  Volcanic Ashes






- Airport Elevation : 7 ft
- IATA code : XHE


LFTH - Hyeres

CURRENT METAR :
  • 210200Z AUTO VRB01KT CAVOK 18/17 Q1015 TEMPO 4000 RA OVC010

EXPIRED METARs :
  • 210130Z AUTO 01003KT 330V040 CAVOK 18/17 Q1016 TEMPO 4000 RA OVC010 BECMG 11010KT
  • 210100Z AUTO 26003KT 230V290 9999 ///TCU 18/17 Q1017 TEMPO 4000 RA OVC010 BECMG 11010KT
  • 210030Z AUTO 24004KT 9999 FEW010/// SCT050/// BKN092/// ///TCU 18/17 Q1016 TEMPO 4000 RA OVC010 BECMG 11010KT
  • 210000Z AUTO 21004KT 180V240 9999 -RA FEW010/// SCT068/// OVC100/// ///CB 19/17 Q1017 TEMPO 4000 RA OVC010 BECMG 11010KT
  • 202330Z AUTO 20003KT 170V230 6000 RA VCTS SCT009/// BKN015/// BKN022/// ///CB 19/18 Q1017 TEMPO 4000 RA OVC010 BECMG 11010KT

TAF AMD TAF LFTH
Valid from the 20 at 23:00 until the 21 at 21:00 UTC


202325Z 2023/2121 11010KT 9999 FEW014 BKN060
TEMPO 2023/2024 VRB15G30KT 1500 TSRA BKN020CB
TEMPO 2023/2112 4000 RA OVC010
BECMG 2110/2112 VRB05KT
TEMPO 2112/2117 SHRA
BECMG 2115/2117 35010KT



MET'MAP, your aeronautical weather chart ! - Copyright ORBIFLY December 2007 - Disclaimer

ORBIFLY MET'MAP TEAM :

Programming & Development : Alexandra Zaïnal
Concept & Development : Baudouin d'Aumeries
Co-Development & Prog : Marc-Olivier Méhu
Technical & hardware support : Manuel Goepfert

Contact : metmap@orbifly.com




SOURCES & CREDITS :

   NOAA